Wetterdaten: Woche 04.04.11 - 10.04.11 (KW14)
Datum Zeit Temp. Innen Temp. Aussen UV X Diff Temp. Feuchte Inne Feuchte Auss Sonnenschein Luftdruck Regen ab 0,1 Wind Sonnenschein T Regendauer Windben
04.04.2011 00:00 18,2 C 10,4 C 0,0 UV-I 0,0 C 60 % 89 % 0 % 1016,2 hPa 0,0 l/m 0,3 km/h (0 Bft) 0,00 h 0,00 h 1,0 km/h (0 Bft)
04.04.2011 01:00 18,1 C 10,3 C 0,0 UV-I 0,0 C 60 % 88 % 0 % 1017,0 hPa 0,0 l/m 1,6 km/h (1 Bft) 0,00 h 0,00 h 4,0 km/h (1 Bft)
04.04.2011 02:00 17,9 C 10,0 C 0,0 UV-I 0,0 C 60 % 89 % 0 % 1017,2 hPa 0,0 l/m 0,5 km/h (0 Bft) 0,00 h 0,00 h 2,3 km/h (1 Bft)
04.04.2011 03:00 17,8 C 9,6 C 0,0 UV-I 0,0 C 60 % 89 % 0 % 1016,9 hPa 0,0 l/m 0,0 km/h (0 Bft) 0,00 h 0,00 h 0,3 km/h (0 Bft)
04.04.2011 04:00 17,6 C 9,2 C 0,0 UV-I 0,0 C 60 % 90 % 0 % 1016,8 hPa 0,0 l/m 0,8 km/h (0 Bft) 0,00 h 0,00 h 2,6 km/h (1 Bft)
04.04.2011 05:00 17,5 C 9,2 C 0,0 UV-I 0,0 C 59 % 91 % 0 % 1017,0 hPa 0,0 l/m 3,7 km/h (1 Bft) 0,00 h 0,00 h 7,3 km/h (2 Bft)
04.04.2011 06:00 17,4 C 9,2 C 0,0 UV-I 0,0 C 59 % 90 % 0 % 1017,9 hPa 0,0 l/m 5,0 km/h (1 Bft) 0,00 h 0,00 h 7,1 km/h (2 Bft)
04.04.2011 07:00 17,2 C 9,1 C 0,0 UV-I 0,0 C 58 % 90 % 0 % 1018,3 hPa 0,0 l/m 2,8 km/h (1 Bft) 0,00 h 0,00 h 4,0 km/h (1 Bft)
04.04.2011 08:00 17,2 C 9,5 C 0,0 UV-I 0,1 C 58 % 90 % 2 % 1019,3 hPa 0,0 l/m 5,3 km/h (1 Bft) 0,00 h 0,00 h 7,8 km/h (2 Bft)
04.04.2011 09:00 17,3 C 10,0 C 0,0 UV-I 0,4 C 58 % 88 % 11 % 1020,1 hPa 0,0 l/m 6,5 km/h (2 Bft) 0,00 h 0,00 h 10,4 km/h (2 Bft)
04.04.2011 10:00 17,5 C 10,5 C 0,0 UV-I 0,7 C 57 % 86 % 20 % 1021,1 hPa 0,0 l/m 7,4 km/h (2 Bft) 0,00 h 0,00 h 10,1 km/h (2 Bft)
04.04.2011 11:00 17,7 C 11,3 C 0,0 UV-I 1,6 C 56 % 80 % 47 % 1022,1 hPa 0,0 l/m 8,0 km/h (2 Bft) 0,00 h 0,00 h 10,4 km/h (2 Bft)
04.04.2011 12:00 17,9 C 12,2 C 1,4 UV-I 3,3 C 55 % 76 % 67 % 1022,6 hPa 0,1 l/m 7,0 km/h (2 Bft) 0,53 h 0,00 h 10,9 km/h (2 Bft)
04.04.2011 13:00 18,3 C 13,1 C 0,6 UV-I 2,4 C 54 % 71 % 59 % 1022,8 hPa 0,0 l/m 8,3 km/h (2 Bft) 0,33 h 0,00 h 12,1 km/h (2 Bft)
04.04.2011 14:00 18,9 C 13,8 C 2,0 UV-I 3,7 C 52 % 67 % 80 % 1023,0 hPa 0,0 l/m 8,1 km/h (2 Bft) 0,53 h 0,00 h 10,5 km/h (2 Bft)
04.04.2011 15:00 19,5 C 14,7 C 3,2 UV-I 3,7 C 50 % 59 % 87 % 1023,2 hPa 0,0 l/m 8,5 km/h (2 Bft) 0,70 h 0,00 h 10,8 km/h (2 Bft)
04.04.2011 16:00 20,5 C 15,3 C 2,1 UV-I 3,4 C 47 % 55 % 92 % 1023,3 hPa 0,0 l/m 8,2 km/h (2 Bft) 0,80 h 0,00 h 10,5 km/h (2 Bft)
04.04.2011 17:00 21,2 C 15,6 C 0,5 UV-I 3,4 C 45 % 51 % 89 % 1023,3 hPa 0,0 l/m 8,0 km/h (2 Bft) 0,83 h 0,00 h 11,2 km/h (2 Bft)
04.04.2011 18:00 20,9 C 14,6 C 0,0 UV-I 0,7 C 44 % 53 % 19 % 1023,3 hPa 0,0 l/m 6,3 km/h (2 Bft) 0,00 h 0,00 h 8,3 km/h (2 Bft)
04.04.2011 19:00 20,2 C 13,6 C 0,0 UV-I 0,0 C 45 % 58 % 0 % 1023,2 hPa 0,0 l/m 1,9 km/h (1 Bft) 0,00 h 0,00 h 4,0 km/h (1 Bft)
04.04.2011 20:00 19,4 C 12,7 C 0,0 UV-I 0,0 C 46 % 61 % 0 % 1023,5 hPa 0,0 l/m 2,8 km/h (1 Bft) 0,00 h 0,00 h 5,7 km/h (1 Bft)
04.04.2011 21:00 18,9 C 12,0 C 0,0 UV-I 0,0 C 48 % 65 % 0 % 1024,1 hPa 0,0 l/m 1,6 km/h (1 Bft) 0,00 h 0,00 h 3,6 km/h (1 Bft)
04.04.2011 22:00 18,5 C 11,2 C 0,0 UV-I 0,0 C 49 % 68 % 0 % 1024,9 hPa 0,0 l/m 2,7 km/h (1 Bft) 0,00 h 0,00 h 4,6 km/h (1 Bft)
04.04.2011 23:00 18,3 C 10,3 C 0,0 UV-I 0,0 C 50 % 71 % 0 % 1025,6 hPa 0,0 l/m 0,8 km/h (0 Bft) 0,00 h 0,00 h 1,9 km/h (1 Bft)
05.04.2011 00:00 18,0 C 9,1 C 0,0 UV-I 0,0 C 50 % 70 % 0 % 1025,8 hPa 0,0 l/m 0,0 km/h (0 Bft) 0,00 h 0,00 h 0,0 km/h (0 Bft)
05.04.2011 01:00 17,7 C 8,2 C 0,0 UV-I 0,0 C 49 % 67 % 0 % 1025,5 hPa 0,0 l/m 0,1 km/h (0 Bft) 0,00 h 0,00 h 0,5 km/h (0 Bft)
05.04.2011 02:00 17,4 C 7,5 C 0,0 UV-I 0,0 C 49 % 69 % 0 % 1024,9 hPa 0,0 l/m 0,8 km/h (0 Bft) 0,00 h 0,00 h 3,2 km/h (1 Bft)
05.04.2011 03:00 17,1 C 7,4 C 0,0 UV-I 0,0 C 48 % 69 % 0 % 1024,2 hPa 0,0 l/m 2,5 km/h (1 Bft) 0,00 h 0,00 h 4,2 km/h (1 Bft)
05.04.2011 04:00 16,9 C 7,0 C 0,0 UV-I 0,0 C 47 % 69 % 0 % 1024,4 hPa 0,0 l/m 1,1 km/h (0 Bft) 0,00 h 0,00 h 2,5 km/h (1 Bft)
05.04.2011 05:00 16,8 C 6,5 C 0,0 UV-I 0,0 C 48 % 70 % 0 % 1024,3 hPa 0,0 l/m 0,7 km/h (0 Bft) 0,00 h 0,00 h 1,6 km/h (1 Bft)
05.04.2011 06:00 16,6 C 5,6 C 0,0 UV-I 0,0 C 48 % 74 % 0 % 1024,8 hPa 0,0 l/m 0,7 km/h (0 Bft) 0,00 h 0,00 h 1,5 km/h (1 Bft)
05.04.2011 07:00 16,5 C 6,0 C 0,0 UV-I 0,0 C 48 % 76 % 0 % 1024,9 hPa 0,0 l/m 1,6 km/h (1 Bft) 0,00 h 0,00 h 3,2 km/h (1 Bft)
05.04.2011 08:00 16,5 C 7,7 C 0,0 UV-I 0,0 C 47 % 74 % 1 % 1025,3 hPa 0,0 l/m 3,6 km/h (1 Bft) 0,00 h 0,00 h 6,7 km/h (2 Bft)
05.04.2011 09:00 16,6 C 8,9 C 0,0 UV-I 0,4 C 47 % 72 % 11 % 1025,3 hPa 0,0 l/m 3,8 km/h (1 Bft) 0,00 h 0,00 h 5,9 km/h (2 Bft)
05.04.2011 10:00 16,8 C 10,1 C 0,0 UV-I 0,6 C 48 % 69 % 17 % 1025,3 hPa 0,0 l/m 3,5 km/h (1 Bft) 0,00 h 0,00 h 6,7 km/h (2 Bft)
05.04.2011 11:00 17,0 C 11,5 C 0,0 UV-I 1,1 C 48 % 65 % 33 % 1025,3 hPa 0,0 l/m 4,6 km/h (1 Bft) 0,00 h 0,00 h 7,6 km/h (2 Bft)
05.04.2011 12:00 17,3 C 12,8 C 0,0 UV-I 1,1 C 46 % 57 % 32 % 1025,0 hPa 0,0 l/m 8,0 km/h (2 Bft) 0,00 h 0,00 h 12,3 km/h (3 Bft)
05.04.2011 13:00 17,6 C 13,3 C 0,0 UV-I 1,0 C 45 % 57 % 28 % 1025,1 hPa 0,0 l/m 9,0 km/h (2 Bft) 0,00 h 0,00 h 11,9 km/h (2 Bft)
05.04.2011 14:00 17,7 C 13,5 C 0,0 UV-I 0,6 C 45 % 57 % 18 % 1025,0 hPa 0,0 l/m 8,9 km/h (2 Bft) 0,00 h 0,00 h 13,4 km/h (3 Bft)
05.04.2011 15:00 17,8 C 13,9 C 0,0 UV-I 1,2 C 45 % 57 % 33 % 1024,6 hPa 0,0 l/m 8,8 km/h (2 Bft) 0,00 h 0,00 h 12,8 km/h (3 Bft)
05.04.2011 16:00 17,9 C 14,3 C 0,0 UV-I 0,5 C 45 % 54 % 14 % 1024,4 hPa 0,0 l/m 9,2 km/h (2 Bft) 0,00 h 0,00 h 11,7 km/h (2 Bft)
05.04.2011 17:00 17,9 C 14,1 C 0,0 UV-I 0,1 C 44 % 50 % 3 % 1024,7 hPa 0,0 l/m 12,5 km/h (3 Bft) 0,00 h 0,00 h 17,3 km/h (3 Bft)
05.04.2011 18:00 17,8 C 12,7 C 0,0 UV-I 0,0 C 44 % 58 % 0 % 1025,4 hPa 0,0 l/m 13,6 km/h (3 Bft) 0,00 h 0,00 h 20,1 km/h (4 Bft)
05.04.2011 19:00 17,5 C 10,7 C 0,0 UV-I 0,0 C 47 % 73 % 0 % 1026,2 hPa 0,1 l/m 11,7 km/h (2 Bft) 0,00 h 0,00 h 16,3 km/h (3 Bft)
05.04.2011 20:00 17,1 C 9,5 C 0,0 UV-I 0,0 C 48 % 78 % 0 % 1026,5 hPa 0,0 l/m 5,5 km/h (1 Bft) 0,00 h 0,00 h 7,8 km/h (2 Bft)
05.04.2011 21:00 16,9 C 9,7 C 0,0 UV-I 0,0 C 49 % 77 % 0 % 1026,2 hPa 0,0 l/m 3,7 km/h (1 Bft) 0,00 h 0,00 h 5,9 km/h (2 Bft)
05.04.2011 22:00 16,8 C 10,3 C 0,0 UV-I 0,0 C 49 % 75 % 0 % 1026,4 hPa 0,0 l/m 4,3 km/h (1 Bft) 0,00 h 0,00 h 6,7 km/h (2 Bft)
05.04.2011 23:00 16,8 C 10,5 C 0,0 UV-I 0,0 C 50 % 76 % 0 % 1026,2 hPa 0,0 l/m 3,7 km/h (1 Bft) 0,00 h 0,00 h 7,2 km/h (2 Bft)
06.04.2011 00:00 16,8 C 10,9 C 0,0 UV-I 0,0 C 51 % 77 % 0 % 1026,3 hPa 0,0 l/m 4,4 km/h (1 Bft) 0,00 h 0,00 h 9,4 km/h (2 Bft)
06.04.2011 01:00 16,8 C 11,4 C 0,0 UV-I 0,0 C 52 % 77 % 0 % 1026,4 hPa 0,0 l/m 5,7 km/h (1 Bft) 0,00 h 0,00 h 8,7 km/h (2 Bft)
06.04.2011 02:00 16,8 C 11,8 C 0,0 UV-I 0,0 C 53 % 77 % 0 % 1026,3 hPa 0,0 l/m 3,9 km/h (1 Bft) 0,00 h 0,00 h 6,0 km/h (2 Bft)
06.04.2011 03:00 16,8 C 12,0 C 0,0 UV-I 0,0 C 53 % 77 % 0 % 1026,2 hPa 0,0 l/m 3,4 km/h (1 Bft) 0,00 h 0,00 h 6,2 km/h (2 Bft)
06.04.2011 04:00 16,9 C 12,4 C 0,0 UV-I 0,0 C 53 % 77 % 0 % 1025,9 hPa 0,0 l/m 4,6 km/h (1 Bft) 0,00 h 0,00 h 8,2 km/h (2 Bft)
06.04.2011 05:00 16,9 C 12,4 C 0,0 UV-I 0,0 C 54 % 79 % 0 % 1026,0 hPa 0,0 l/m 5,4 km/h (1 Bft) 0,00 h 0,00 h 7,5 km/h (2 Bft)
06.04.2011 06:00 16,9 C 12,5 C 0,0 UV-I 0,0 C 55 % 80 % 0 % 1026,0 hPa 0,0 l/m 3,9 km/h (1 Bft) 0,00 h 0,00 h 6,8 km/h (2 Bft)
06.04.2011 07:00 17,0 C 12,4 C 0,0 UV-I 0,0 C 56 % 82 % 0 % 1026,6 hPa 0,0 l/m 3,7 km/h (1 Bft) 0,00 h 0,00 h 7,1 km/h (2 Bft)
06.04.2011 08:00 17,0 C 12,6 C 0,0 UV-I 0,0 C 57 % 84 % 1 % 1027,1 hPa 0,0 l/m 4,6 km/h (1 Bft) 0,00 h 0,00 h 7,6 km/h (2 Bft)
06.04.2011 09:00 17,3 C 13,8 C 0,0 UV-I 1,9 C 57 % 82 % 47 % 1027,4 hPa 0,0 l/m 5,4 km/h (1 Bft) 0,27 h 0,00 h 8,1 km/h (2 Bft)
06.04.2011 10:00 17,7 C 15,8 C 0,5 UV-I 4,2 C 58 % 76 % 100 % 1028,0 hPa 0,0 l/m 7,8 km/h (2 Bft) 1,00 h 0,00 h 9,8 km/h (2 Bft)
06.04.2011 11:00 18,2 C 17,1 C 1,3 UV-I 4,3 C 57 % 69 % 100 % 1028,3 hPa 0,0 l/m 10,0 km/h (2 Bft) 1,00 h 0,00 h 14,1 km/h (3 Bft)
06.04.2011 12:00 18,5 C 18,3 C 1,8 UV-I 5,0 C 56 % 62 % 100 % 1028,6 hPa 0,0 l/m 10,7 km/h (2 Bft) 1,00 h 0,00 h 14,7 km/h (3 Bft)
06.04.2011 13:00 19,1 C 20,0 C 6,0 UV-I 6,0 C 54 % 56 % 100 % 1028,7 hPa 0,0 l/m 9,5 km/h (2 Bft) 1,00 h 0,00 h 12,8 km/h (3 Bft)
06.04.2011 14:00 20,2 C 21,5 C 7,4 UV-I 5,7 C 52 % 52 % 100 % 1029,3 hPa 0,0 l/m 8,7 km/h (2 Bft) 1,00 h 0,00 h 13,0 km/h (3 Bft)
06.04.2011 15:00 21,3 C 22,7 C 7,6 UV-I 5,2 C 50 % 51 % 100 % 1029,4 hPa 0,0 l/m 8,1 km/h (2 Bft) 1,00 h 0,00 h 11,5 km/h (2 Bft)
06.04.2011 16:00 22,1 C 23,0 C 6,3 UV-I 4,5 C 49 % 51 % 100 % 1029,1 hPa 0,0 l/m 8,9 km/h (2 Bft) 1,00 h 0,00 h 10,8 km/h (2 Bft)
06.04.2011 17:00 22,6 C 23,3 C 2,2 UV-I 3,9 C 48 % 52 % 99 % 1029,2 hPa 0,0 l/m 7,3 km/h (2 Bft) 1,00 h 0,00 h 9,5 km/h (2 Bft)
06.04.2011 18:00 22,4 C 23,0 C 0,0 UV-I 2,1 C 48 % 54 % 59 % 1028,6 hPa 0,0 l/m 4,2 km/h (1 Bft) 0,20 h 0,00 h 6,2 km/h (2 Bft)
06.04.2011 19:00 22,1 C 22,0 C 0,0 UV-I 0,4 C 49 % 57 % 10 % 1028,2 hPa 0,0 l/m 2,1 km/h (1 Bft) 0,00 h 0,00 h 3,5 km/h (1 Bft)
06.04.2011 20:00 21,6 C 20,0 C 0,0 UV-I 0,0 C 50 % 63 % 0 % 1027,9 hPa 0,0 l/m 0,0 km/h (0 Bft) 0,00 h 0,00 h 0,0 km/h (0 Bft)
06.04.2011 21:00 21,2 C 18,1 C 0,0 UV-I 0,0 C 52 % 69 % 0 % 1027,6 hPa 0,0 l/m 0,0 km/h (0 Bft) 0,00 h 0,03 h 0,0 km/h (0 Bft)
06.04.2011 22:00 20,7 C 16,4 C 0,0 UV-I 0,0 C 53 % 75 % 0 % 1027,4 hPa 0,0 l/m 0,0 km/h (0 Bft) 0,00 h 0,17 h 0,0 km/h (0 Bft)
06.04.2011 23:00 20,3 C 15,5 C 0,0 UV-I 0,0 C 54 % 79 % 0 % 1027,0 hPa 0,0 l/m 0,0 km/h (0 Bft) 0,00 h 0,07 h 0,0 km/h (0 Bft)
07.04.2011 00:00 20,0 C 14,8 C 0,0 UV-I 0,0 C 55 % 82 % 0 % 1026,8 hPa 0,0 l/m 0,0 km/h (0 Bft) 0,00 h 0,10 h 0,0 km/h (0 Bft)
07.04.2011 01:00 19,8 C 14,6 C 0,0 UV-I 0,0 C 56 % 84 % 0 % 1026,2 hPa 0,0 l/m 0,6 km/h (0 Bft) 0,00 h 0,03 h 2,3 km/h (1 Bft)
07.04.2011 02:00 19,7 C 14,6 C 0,0 UV-I 0,0 C 57 % 85 % 0 % 1025,8 hPa 0,0 l/m 0,2 km/h (0 Bft) 0,00 h 0,13 h 0,2 km/h (0 Bft)
07.04.2011 03:00 19,6 C 13,9 C 0,0 UV-I 0,0 C 57 % 86 % 0 % 1025,2 hPa 0,0 l/m 0,1 km/h (0 Bft) 0,00 h 0,10 h 0,4 km/h (0 Bft)
07.04.2011 04:00 19,4 C 14,1 C 0,0 UV-I 0,0 C 58 % 86 % 0 % 1025,1 hPa 0,0 l/m 0,4 km/h (0 Bft) 0,00 h 0,03 h 2,4 km/h (1 Bft)
07.04.2011 05:00 19,3 C 14,6 C 0,0 UV-I 0,0 C 58 % 85 % 0 % 1024,9 hPa 0,0 l/m 2,5 km/h (1 Bft) 0,00 h 0,00 h 4,8 km/h (1 Bft)
07.04.2011 06:00 19,2 C 14,9 C 0,0 UV-I 0,0 C 59 % 83 % 0 % 1024,6 hPa 0,0 l/m 3,6 km/h (1 Bft) 0,00 h 0,10 h 7,1 km/h (2 Bft)
07.04.2011 07:00 19,2 C 14,3 C 0,0 UV-I 0,0 C 59 % 83 % 0 % 1024,6 hPa 0,0 l/m 3,5 km/h (1 Bft) 0,00 h 0,00 h 6,5 km/h (2 Bft)
07.04.2011 08:00 19,2 C 14,5 C 0,0 UV-I 0,5 C 59 % 84 % 13 % 1025,1 hPa 0,0 l/m 3,8 km/h (1 Bft) 0,07 h 0,03 h 5,9 km/h (2 Bft)
07.04.2011 09:00 19,2 C 15,6 C 0,0 UV-I 4,1 C 59 % 76 % 100 % 1025,4 hPa 0,0 l/m 6,7 km/h (2 Bft) 1,00 h 0,00 h 10,4 km/h (2 Bft)
07.04.2011 10:00 19,4 C 16,7 C 1,3 UV-I 5,7 C 57 % 65 % 100 % 1026,0 hPa 0,0 l/m 7,4 km/h (2 Bft) 1,00 h 0,00 h 12,1 km/h (2 Bft)
07.04.2011 11:00 19,6 C 17,9 C 3,6 UV-I 6,8 C 55 % 58 % 100 % 1025,7 hPa 0,0 l/m 7,9 km/h (2 Bft) 1,00 h 0,00 h 10,7 km/h (2 Bft)
07.04.2011 12:00 19,9 C 19,2 C 2,5 UV-I 6,2 C 54 % 51 % 100 % 1026,0 hPa 0,0 l/m 9,9 km/h (2 Bft) 1,00 h 0,00 h 15,0 km/h (3 Bft)
07.04.2011 13:00 20,4 C 20,3 C 6,7 UV-I 5,7 C 53 % 47 % 100 % 1026,2 hPa 0,0 l/m 10,9 km/h (2 Bft) 1,00 h 0,00 h 13,9 km/h (3 Bft)
07.04.2011 14:00 21,4 C 21,0 C 6,7 UV-I 5,3 C 51 % 48 % 100 % 1026,6 hPa 0,0 l/m 10,8 km/h (2 Bft) 1,00 h 0,00 h 14,9 km/h (3 Bft)
07.04.2011 15:00 22,2 C 21,2 C 4,4 UV-I 4,2 C 49 % 51 % 92 % 1026,9 hPa 0,0 l/m 11,6 km/h (2 Bft) 0,83 h 0,00 h 15,7 km/h (3 Bft)
07.04.2011 16:00 22,2 C 19,2 C 0,0 UV-I 0,7 C 49 % 59 % 19 % 1026,7 hPa 0,0 l/m 14,6 km/h (3 Bft) 0,00 h 0,00 h 18,4 km/h (3 Bft)
07.04.2011 17:00 21,8 C 17,2 C 0,0 UV-I 0,1 C 50 % 66 % 4 % 1026,8 hPa 0,0 l/m 15,2 km/h (3 Bft) 0,00 h 0,00 h 19,3 km/h (3 Bft)
07.04.2011 18:00 21,5 C 16,6 C 0,0 UV-I 0,5 C 51 % 68 % 14 % 1026,9 hPa 0,0 l/m 9,9 km/h (2 Bft) 0,00 h 0,00 h 12,3 km/h (3 Bft)
07.04.2011 19:00 21,2 C 16,1 C 0,0 UV-I 0,0 C 51 % 69 % 0 % 1027,0 hPa 0,0 l/m 7,1 km/h (2 Bft) 0,00 h 0,00 h 10,6 km/h (2 Bft)
07.04.2011 20:00 20,7 C 15,1 C 0,0 UV-I 0,0 C 52 % 71 % 0 % 1027,2 hPa 0,0 l/m 7,3 km/h (2 Bft) 0,00 h 0,00 h 10,4 km/h (2 Bft)
07.04.2011 21:00 20,3 C 14,0 C 0,0 UV-I 0,0 C 53 % 73 % 0 % 1027,9 hPa 0,0 l/m 3,9 km/h (1 Bft) 0,00 h 0,00 h 7,5 km/h (2 Bft)
07.04.2011 22:00 20,0 C 12,6 C 0,0 UV-I 0,0 C 53 % 74 % 0 % 1028,1 hPa 0,0 l/m 3,6 km/h (1 Bft) 0,00 h 0,07 h 5,7 km/h (1 Bft)
07.04.2011 23:00 19,7 C 11,1 C 0,0 UV-I 0,0 C 53 % 78 % 0 % 1028,1 hPa 0,0 l/m 0,1 km/h (0 Bft) 0,00 h 0,07 h 0,2 km/h (0 Bft)
08.04.2011 00:00 19,3 C 10,1 C 0,0 UV-I 0,0 C 54 % 81 % 0 % 1028,2 hPa 0,0 l/m 0,0 km/h (0 Bft) 0,00 h 0,07 h 0,3 km/h (0 Bft)
08.04.2011 01:00 19,1 C 9,4 C 0,0 UV-I 0,0 C 54 % 83 % 0 % 1028,1 hPa 0,0 l/m 0,1 km/h (0 Bft) 0,00 h 0,10 h 0,2 km/h (0 Bft)
08.04.2011 02:00 18,9 C 8,4 C 0,0 UV-I 0,0 C 54 % 84 % 0 % 1027,9 hPa 0,0 l/m 0,0 km/h (0 Bft) 0,00 h 0,10 h 0,0 km/h (0 Bft)
08.04.2011 03:00 18,6 C 7,6 C 0,0 UV-I 0,0 C 54 % 86 % 0 % 1027,6 hPa 0,0 l/m 0,0 km/h (0 Bft) 0,00 h 0,03 h 0,0 km/h (0 Bft)
08.04.2011 04:00 18,4 C 7,1 C 0,0 UV-I 0,0 C 54 % 88 % 0 % 1027,1 hPa 0,0 l/m 0,0 km/h (0 Bft) 0,00 h 0,10 h 0,0 km/h (0 Bft)
08.04.2011 05:00 18,2 C 6,4 C 0,0 UV-I 0,0 C 54 % 89 % 0 % 1027,0 hPa 0,0 l/m 0,0 km/h (0 Bft) 0,00 h 0,07 h 0,0 km/h (0 Bft)
08.04.2011 06:00 18,0 C 5,8 C 0,0 UV-I 0,0 C 54 % 89 % 0 % 1026,9 hPa 0,0 l/m 0,0 km/h (0 Bft) 0,00 h 0,07 h 0,0 km/h (0 Bft)
08.04.2011 07:00 17,8 C 5,7 C 0,0 UV-I 0,0 C 54 % 90 % 0 % 1026,9 hPa 0,0 l/m 0,0 km/h (0 Bft) 0,00 h 0,10 h 0,0 km/h (0 Bft)
08.04.2011 08:00 17,7 C 6,9 C 0,0 UV-I 0,6 C 54 % 91 % 16 % 1026,9 hPa 0,0 l/m 0,7 km/h (0 Bft) 0,13 h 0,00 h 1,8 km/h (1 Bft)
08.04.2011 09:00 17,7 C 9,3 C 0,0 UV-I 7,3 C 54 % 86 % 100 % 1027,1 hPa 0,0 l/m 3,5 km/h (1 Bft) 1,00 h 0,00 h 5,8 km/h (2 Bft)
08.04.2011 10:00 17,8 C 11,5 C 3,0 UV-I 9,2 C 54 % 75 % 100 % 1027,0 hPa 0,0 l/m 2,5 km/h (1 Bft) 1,00 h 0,00 h 3,8 km/h (1 Bft)
08.04.2011 11:00 18,0 C 13,6 C 5,1 UV-I 8,8 C 53 % 63 % 100 % 1027,0 hPa 0,0 l/m 4,6 km/h (1 Bft) 1,00 h 0,00 h 7,2 km/h (2 Bft)
08.04.2011 12:00 18,4 C 15,5 C 2,5 UV-I 8,0 C 53 % 55 % 100 % 1026,8 hPa 0,0 l/m 5,7 km/h (1 Bft) 1,00 h 0,00 h 9,0 km/h (2 Bft)
08.04.2011 13:00 19,3 C 17,2 C 6,5 UV-I 7,4 C 51 % 53 % 100 % 1026,6 hPa 0,0 l/m 5,7 km/h (1 Bft) 1,00 h 0,00 h 9,2 km/h (2 Bft)
08.04.2011 14:00 20,6 C 18,5 C 6,5 UV-I 6,5 C 49 % 53 % 100 % 1026,6 hPa 0,0 l/m 7,2 km/h (2 Bft) 1,00 h 0,00 h 9,4 km/h (2 Bft)
08.04.2011 15:00 21,7 C 19,3 C 6,5 UV-I 5,9 C 47 % 51 % 100 % 1026,4 hPa 0,0 l/m 7,8 km/h (2 Bft) 1,00 h 0,00 h 11,3 km/h (2 Bft)
08.04.2011 16:00 22,5 C 19,9 C 5,3 UV-I 5,0 C 46 % 49 % 100 % 1026,0 hPa 0,0 l/m 8,5 km/h (2 Bft) 1,00 h 0,00 h 12,1 km/h (2 Bft)
08.04.2011 17:00 22,9 C 19,8 C 1,7 UV-I 3,6 C 44 % 50 % 93 % 1025,5 hPa 0,0 l/m 7,4 km/h (2 Bft) 0,83 h 0,00 h 10,3 km/h (2 Bft)
08.04.2011 18:00 22,4 C 19,1 C 0,0 UV-I 1,4 C 45 % 54 % 39 % 1025,1 hPa 0,0 l/m 7,1 km/h (2 Bft) 0,13 h 0,00 h 11,9 km/h (2 Bft)
08.04.2011 19:00 22,0 C 17,6 C 0,0 UV-I 0,0 C 46 % 58 % 1 % 1025,0 hPa 0,0 l/m 7,2 km/h (2 Bft) 0,00 h 0,00 h 12,0 km/h (2 Bft)
08.04.2011 20:00 21,5 C 15,3 C 0,0 UV-I 0,0 C 47 % 59 % 0 % 1025,4 hPa 0,0 l/m 6,1 km/h (2 Bft) 0,00 h 0,00 h 8,0 km/h (2 Bft)
08.04.2011 21:00 20,8 C 13,6 C 0,0 UV-I 0,0 C 48 % 62 % 0 % 1026,0 hPa 0,0 l/m 4,7 km/h (1 Bft) 0,00 h 0,00 h 6,8 km/h (2 Bft)
08.04.2011 22:00 20,2 C 12,1 C 0,0 UV-I 0,0 C 48 % 64 % 0 % 1026,5 hPa 0,0 l/m 3,7 km/h (1 Bft) 0,00 h 0,00 h 5,5 km/h (1 Bft)
08.04.2011 23:00 19,8 C 10,7 C 0,0 UV-I 0,0 C 49 % 68 % 0 % 1026,6 hPa 0,0 l/m 1,6 km/h (1 Bft) 0,00 h 0,00 h 3,1 km/h (1 Bft)
09.04.2011 00:00 19,4 C 9,5 C 0,0 UV-I 0,0 C 49 % 72 % 0 % 1026,7 hPa 0,0 l/m 0,1 km/h (0 Bft) 0,00 h 0,00 h 0,4 km/h (0 Bft)
09.04.2011 01:00 19,1 C 8,4 C 0,0 UV-I 0,0 C 50 % 76 % 0 % 1026,6 hPa 0,0 l/m 0,1 km/h (0 Bft) 0,00 h 0,00 h 0,2 km/h (0 Bft)
09.04.2011 02:00 18,9 C 7,7 C 0,0 UV-I 0,0 C 50 % 79 % 0 % 1026,4 hPa 0,0 l/m 0,2 km/h (0 Bft) 0,00 h 0,07 h 0,3 km/h (0 Bft)
09.04.2011 03:00 18,6 C 7,0 C 0,0 UV-I 0,0 C 50 % 82 % 0 % 1026,2 hPa 0,0 l/m 0,0 km/h (0 Bft) 0,00 h 0,07 h 0,0 km/h (0 Bft)
09.04.2011 04:00 18,4 C 7,1 C 0,0 UV-I 0,0 C 51 % 86 % 0 % 1025,9 hPa 0,0 l/m 2,9 km/h (1 Bft) 0,00 h 0,03 h 4,9 km/h (1 Bft)
09.04.2011 05:00 18,3 C 7,9 C 0,0 UV-I 0,0 C 52 % 87 % 0 % 1025,9 hPa 0,0 l/m 4,0 km/h (1 Bft) 0,00 h 0,00 h 7,6 km/h (2 Bft)
09.04.2011 06:00 18,2 C 8,1 C 0,0 UV-I 0,0 C 52 % 87 % 0 % 1026,1 hPa 0,0 l/m 6,4 km/h (2 Bft) 0,00 h 0,00 h 9,5 km/h (2 Bft)
09.04.2011 07:00 18,1 C 7,9 C 0,0 UV-I 0,0 C 52 % 85 % 0 % 1026,4 hPa 0,0 l/m 8,6 km/h (2 Bft) 0,00 h 0,00 h 10,7 km/h (2 Bft)
09.04.2011 08:00 18,0 C 8,2 C 0,0 UV-I 0,8 C 52 % 83 % 23 % 1027,0 hPa 0,0 l/m 6,6 km/h (2 Bft) 0,13 h 0,00 h 8,5 km/h (2 Bft)
09.04.2011 09:00 18,0 C 9,2 C 0,1 UV-I 5,5 C 52 % 81 % 99 % 1027,3 hPa 0,0 l/m 7,9 km/h (2 Bft) 0,97 h 0,00 h 10,3 km/h (2 Bft)
09.04.2011 10:00 18,1 C 10,2 C 2,9 UV-I 6,0 C 52 % 75 % 100 % 1027,2 hPa 0,0 l/m 8,1 km/h (2 Bft) 1,00 h 0,00 h 10,8 km/h (2 Bft)
09.04.2011 11:00 18,2 C 11,6 C 3,9 UV-I 6,8 C 51 % 68 % 100 % 1027,5 hPa 0,0 l/m 8,0 km/h (2 Bft) 1,00 h 0,00 h 11,0 km/h (2 Bft)
09.04.2011 12:00 18,5 C 13,1 C 2,6 UV-I 7,0 C 51 % 58 % 100 % 1027,2 hPa 0,0 l/m 9,3 km/h (2 Bft) 1,00 h 0,00 h 11,7 km/h (2 Bft)
09.04.2011 13:00 19,3 C 14,8 C 7,3 UV-I 7,6 C 49 % 53 % 100 % 1027,2 hPa 0,0 l/m 9,5 km/h (2 Bft) 1,00 h 0,00 h 12,8 km/h (3 Bft)
09.04.2011 14:00 20,6 C 16,3 C 7,8 UV-I 7,0 C 47 % 43 % 100 % 1027,6 hPa 0,0 l/m 9,3 km/h (2 Bft) 1,00 h 0,00 h 12,9 km/h (3 Bft)
09.04.2011 15:00 21,7 C 16,8 C 8,4 UV-I 6,1 C 44 % 43 % 100 % 1027,7 hPa 0,0 l/m 9,7 km/h (2 Bft) 1,00 h 0,00 h 12,2 km/h (2 Bft)
09.04.2011 16:00 22,5 C 17,7 C 8,2 UV-I 5,4 C 42 % 38 % 100 % 1027,2 hPa 0,0 l/m 10,5 km/h (2 Bft) 1,00 h 0,00 h 12,7 km/h (3 Bft)
09.04.2011 17:00 22,9 C 18,2 C 3,0 UV-I 4,6 C 40 % 35 % 100 % 1026,8 hPa 0,0 l/m 10,0 km/h (2 Bft) 1,00 h 0,00 h 12,5 km/h (3 Bft)
09.04.2011 18:00 22,4 C 17,9 C 0,1 UV-I 1,8 C 40 % 38 % 48 % 1026,0 hPa 0,0 l/m 9,3 km/h (2 Bft) 0,23 h 0,00 h 11,2 km/h (2 Bft)
09.04.2011 19:00 21,9 C 16,5 C 0,0 UV-I 0,0 C 41 % 43 % 1 % 1025,7 hPa 0,0 l/m 9,0 km/h (2 Bft) 0,00 h 0,00 h 9,4 km/h (2 Bft)
09.04.2011 20:00 21,3 C 14,8 C 0,0 UV-I 0,0 C 42 % 49 % 0 % 1025,2 hPa 0,0 l/m 3,2 km/h (1 Bft) 0,00 h 0,00 h 3,5 km/h (1 Bft)
09.04.2011 21:00 20,5 C 13,1 C 0,0 UV-I 0,0 C 44 % 55 % 0 % 1025,3 hPa 0,0 l/m 3,8 km/h (1 Bft) 0,00 h 0,00 h 4,5 km/h (1 Bft)
09.04.2011 22:00 19,9 C 11,5 C 0,0 UV-I 0,0 C 45 % 58 % 0 % 1025,4 hPa 0,0 l/m 0,2 km/h (0 Bft) 0,00 h 0,00 h 0,0 km/h (0 Bft)
09.04.2011 23:00 19,5 C 9,4 C 0,0 UV-I 0,0 C 46 % 65 % 0 % 1025,4 hPa 0,0 l/m 0,0 km/h (0 Bft) 0,00 h 0,00 h 0,0 km/h (0 Bft)
10.04.2011 00:00 19,1 C 7,9 C 0,0 UV-I 0,0 C 46 % 71 % 0 % 1025,2 hPa 0,0 l/m 0,0 km/h (0 Bft) 0,00 h 0,00 h 0,0 km/h (0 Bft)
10.04.2011 01:00 18,8 C 8,3 C 0,0 UV-I 0,0 C 47 % 69 % 0 % 1025,1 hPa 0,0 l/m 0,5 km/h (0 Bft) 0,00 h 0,00 h 1,1 km/h (0 Bft)
10.04.2011 02:00 18,6 C 8,1 C 0,0 UV-I 0,0 C 47 % 68 % 0 % 1025,1 hPa 0,0 l/m 0,4 km/h (0 Bft) 0,00 h 0,00 h 0,9 km/h (0 Bft)
10.04.2011 03:00 18,4 C 7,1 C 0,0 UV-I 0,0 C 47 % 70 % 0 % 1024,9 hPa 0,0 l/m 0,0 km/h (0 Bft) 0,00 h 0,00 h 0,0 km/h (0 Bft)
10.04.2011 04:00 18,2 C 5,8 C 0,0 UV-I 0,0 C 47 % 75 % 0 % 1024,7 hPa 0,0 l/m 0,0 km/h (0 Bft) 0,00 h 0,00 h 0,0 km/h (0 Bft)
10.04.2011 05:00 17,9 C 5,1 C 0,0 UV-I 0,0 C 47 % 78 % 0 % 1024,6 hPa 0,0 l/m 0,0 km/h (0 Bft) 0,00 h 0,00 h 0,0 km/h (0 Bft)
10.04.2011 06:00 17,7 C 5,4 C 0,0 UV-I 0,0 C 47 % 80 % 0 % 1024,7 hPa 0,0 l/m 1,0 km/h (0 Bft) 0,00 h 0,00 h 1,4 km/h (1 Bft)
10.04.2011 07:00 17,5 C 5,4 C 0,0 UV-I 0,0 C 48 % 81 % 0 % 1024,9 hPa 0,0 l/m 0,0 km/h (0 Bft) 0,00 h 0,07 h 0,0 km/h (0 Bft)
10.04.2011 08:00 17,5 C 7,0 C 0,0 UV-I 1,1 C 48 % 81 % 29 % 1025,3 hPa 0,0 l/m 1,3 km/h (1 Bft) 0,20 h 0,00 h 2,9 km/h (1 Bft)
10.04.2011 09:00 17,6 C 9,9 C 0,1 UV-I 5,4 C 49 % 75 % 100 % 1025,3 hPa 0,0 l/m 6,1 km/h (2 Bft) 1,00 h 0,00 h 8,6 km/h (2 Bft)
10.04.2011 10:00 17,8 C 12,7 C 3,2 UV-I 7,3 C 49 % 61 % 100 % 1025,6 hPa 0,0 l/m 4,4 km/h (1 Bft) 1,00 h 0,03 h 6,4 km/h (2 Bft)
10.04.2011 11:00 18,0 C 15,0 C 4,4 UV-I 7,9 C 48 % 47 % 100 % 1025,8 hPa 0,0 l/m 3,8 km/h (1 Bft) 1,00 h 0,00 h 6,3 km/h (2 Bft)
10.04.2011 12:00 18,4 C 17,1 C 2,2 UV-I 7,0 C 47 % 41 % 100 % 1025,8 hPa 0,0 l/m 6,1 km/h (2 Bft) 1,00 h 0,00 h 9,1 km/h (2 Bft)
10.04.2011 13:00 19,1 C 18,3 C 6,2 UV-I 7,5 C 47 % 39 % 100 % 1025,8 hPa 0,0 l/m 6,5 km/h (2 Bft) 1,00 h 0,00 h 9,3 km/h (2 Bft)
10.04.2011 14:00 20,5 C 19,1 C 6,6 UV-I 6,3 C 44 % 40 % 100 % 1026,1 hPa 0,0 l/m 9,5 km/h (2 Bft) 1,00 h 0,00 h 13,0 km/h (3 Bft)
10.04.2011 15:00 21,6 C 19,8 C 6,9 UV-I 5,6 C 42 % 41 % 100 % 1026,2 hPa 0,0 l/m 10,0 km/h (2 Bft) 1,00 h 0,00 h 11,7 km/h (2 Bft)
10.04.2011 16:00 22,4 C 20,3 C 6,3 UV-I 5,0 C 41 % 38 % 100 % 1026,1 hPa 0,0 l/m 9,6 km/h (2 Bft) 1,00 h 0,00 h 12,1 km/h (2 Bft)
10.04.2011 17:00 22,7 C 20,4 C 2,0 UV-I 3,8 C 40 % 40 % 96 % 1025,8 hPa 0,0 l/m 10,0 km/h (2 Bft) 0,90 h 0,00 h 13,8 km/h (3 Bft)
10.04.2011 18:00 22,3 C 19,8 C 0,0 UV-I 1,1 C 41 % 43 % 31 % 1025,0 hPa 0,0 l/m 9,6 km/h (2 Bft) 0,00 h 0,00 h 10,1 km/h (2 Bft)
10.04.2011 19:00 21,9 C 18,5 C 0,0 UV-I 0,0 C 43 % 48 % 0 % 1024,6 hPa 0,0 l/m 6,0 km/h (2 Bft) 0,00 h 0,00 h 7,0 km/h (2 Bft)
10.04.2011 20:00 21,4 C 16,4 C 0,0 UV-I 0,0 C 43 % 53 % 0 % 1024,3 hPa 0,0 l/m 1,5 km/h (1 Bft) 0,00 h 0,00 h 2,2 km/h (1 Bft)
10.04.2011 21:00 20,8 C 14,0 C 0,0 UV-I 0,0 C 45 % 61 % 0 % 1024,5 hPa 0,0 l/m 0,0 km/h (0 Bft) 0,00 h 0,00 h 0,0 km/h (0 Bft)
10.04.2011 22:00 20,2 C 12,0 C 0,0 UV-I 0,0 C 46 % 68 % 0 % 1024,5 hPa 0,0 l/m 0,0 km/h (0 Bft) 0,00 h 0,00 h 0,0 km/h (0 Bft)
10.04.2011 23:00 19,9 C 10,9 C 0,0 UV-I 0,0 C 47 % 73 % 0 % 1024,5 hPa 0,0 l/m 0,0 km/h (0 Bft) 0,00 h 0,00 h 0,0 km/h (0 Bft)
Min-Datum _ 05.04.11 10.04.11 04.04.11 04.04.11 10.04.11 09.04.11 04.04.11 04.04.11 - 04.04.11 - - 04.04.11
_ Min-Zeit 07:24 05:32 00:00 00:00 17:28 17:02 00:00 00:16 - 00:00 - - 00:00
Minimum _ 16,5 C 4,9 C 0,0 UV-I 0,0 C 39 % 33 % 0 % 1016,1 hPa - 0,0 km/h (0 Bft) - - 0,0 km/h (0 Bft)
Max-Datum _ 08.04.11 06.04.11 09.04.11 08.04.11 04.04.11 04.04.11 04.04.11 06.04.11 05.04.11 07.04.11 04.04.11 06.04.11 05.04.11
_ Max-Zeit 17:18 17:30 15:56 10:48 00:00 04:32 12:30 14:16 19:56 16:52 12:28 21:00 19:04
Maximum _ 23,0 C 23,7 C 9,0 UV-I 9,9 C 60 % 91 % 100 % 1029,4 hPa 0,1 l/m 20,9 km/h
W (4 Bft)
0,03 h 0,03 h 49,9 km/h
SO (6 Bft)
Durchschnitt _ 19,1 C 13,0 C 1,1 UV-I 1,7 C 50 % 68 % 32 % 1025,5 hPa #0,2 l/m 4,8 km/h (1 Bft) #46:38 h #1:50 h 6,9 km/h (2 Bft)
© 2012 W. Hausmann